createdAt,value
2018-05-15T00:02:00.856Z,0.70
2018-05-15T00:04:33.203Z,0.80
2018-05-15T00:07:06.323Z,0.77
2018-05-15T00:09:38.669Z,0.60
2018-05-15T00:12:10.978Z,0.60
2018-05-15T00:14:43.352Z,0.47
2018-05-15T00:17:16.448Z,0.80
2018-05-15T00:19:48.930Z,0.60
2018-05-15T00:22:21.522Z,0.80
2018-05-15T00:24:53.782Z,0.70
2018-05-15T00:27:26.145Z,1.10
2018-05-15T00:29:58.567Z,0.67
2018-05-15T00:32:31.608Z,0.63
2018-05-15T00:35:03.907Z,1.00
2018-05-15T00:37:37.077Z,0.60
2018-05-15T00:40:09.465Z,0.87
2018-05-15T00:42:41.692Z,0.50
2018-05-15T00:45:14.037Z,0.50
2018-05-15T00:47:47.082Z,0.60
2018-05-15T00:50:19.408Z,0.53
2018-05-15T00:52:51.873Z,0.60
2018-05-15T00:55:36.502Z,0.70
2018-05-15T00:58:09.594Z,0.90
2018-05-15T01:00:42.071Z,0.60
2018-05-15T01:03:14.427Z,0.60
2018-05-15T01:05:46.710Z,0.67
2018-05-15T01:08:19.034Z,0.50
2018-05-15T01:10:51.331Z,0.50
2018-05-15T01:13:23.684Z,0.97
2018-05-15T01:15:55.966Z,0.63
2018-05-15T01:18:28.300Z,0.57
2018-05-15T01:21:00.638Z,0.60
2018-05-15T01:23:32.986Z,0.80
2018-05-15T01:26:05.430Z,1.30
2018-05-15T01:28:37.766Z,0.70
2018-05-15T01:31:10.154Z,1.27
2018-05-15T01:33:43.309Z,0.80
2018-05-15T01:36:15.700Z,0.90
2018-05-15T01:38:48.164Z,0.97
2018-05-15T01:41:20.646Z,0.97
2018-05-15T01:43:52.982Z,0.80
2018-05-15T01:46:25.321Z,0.97
2018-05-15T01:48:58.483Z,1.13
2018-05-15T01:51:30.848Z,0.60
2018-05-15T01:54:03.183Z,1.20
2018-05-15T01:56:36.207Z,1.03
2018-05-15T01:59:08.555Z,0.73
2018-05-15T02:01:40.864Z,1.17
2018-05-15T02:04:13.158Z,1.00
2018-05-15T02:06:46.256Z,0.67
2018-05-15T02:09:18.621Z,1.13
2018-05-15T02:11:51.785Z,0.70
2018-05-15T02:14:24.139Z,0.70
2018-05-15T02:16:56.467Z,0.60
2018-05-15T02:19:28.767Z,1.03
2018-05-15T02:22:01.495Z,0.80
2018-05-15T02:24:34.611Z,0.60
2018-05-15T02:27:06.920Z,1.27
2018-05-15T02:29:39.300Z,0.83
2018-05-15T02:32:11.807Z,0.83
2018-05-15T02:34:44.981Z,0.83
2018-05-15T02:37:18.101Z,0.90
2018-05-15T02:39:50.425Z,1.63
2018-05-15T02:42:22.862Z,0.80
2018-05-15T02:44:55.168Z,0.97
2018-05-15T02:47:27.568Z,1.03
2018-05-15T02:50:00.753Z,0.80
2018-05-15T02:52:33.959Z,1.23
2018-05-15T02:55:07.115Z,0.70
2018-05-15T02:57:39.413Z,0.80
2018-05-15T03:00:12.570Z,0.63
2018-05-15T03:02:45.015Z,1.00
2018-05-15T03:05:17.319Z,0.73
2018-05-15T03:07:49.682Z,1.03
2018-05-15T03:10:22.074Z,1.13
2018-05-15T03:12:54.445Z,1.00
2018-05-15T03:15:26.805Z,1.10
2018-05-15T03:17:59.142Z,0.90
2018-05-15T03:20:31.534Z,1.33
2018-05-15T03:23:04.612Z,1.43
2018-05-15T03:25:37.026Z,0.90
2018-05-15T03:28:09.374Z,1.87
2018-05-15T03:30:41.649Z,0.80
2018-05-15T03:33:14.038Z,1.00
2018-05-15T03:35:46.341Z,0.87
2018-05-15T03:38:18.715Z,1.57
2018-05-15T03:40:51.790Z,1.00
2018-05-15T03:43:25.030Z,1.10
2018-05-15T03:45:57.365Z,0.73
2018-05-15T03:48:30.369Z,1.30
2018-05-15T03:51:02.683Z,1.17
2018-05-15T03:53:35.113Z,0.93
2018-05-15T03:56:07.473Z,0.70
2018-05-15T03:58:40.610Z,1.20
2018-05-15T04:01:25.404Z,1.07
2018-05-15T04:04:10.315Z,1.23
2018-05-15T04:06:54.965Z,1.10
2018-05-15T04:09:28.052Z,0.90
2018-05-15T04:12:01.083Z,0.93
2018-05-15T04:14:40.398Z,1.07
2018-05-15T04:17:12.800Z,1.77
2018-05-15T04:19:45.143Z,1.17
2018-05-15T04:22:18.403Z,0.70
2018-05-15T04:24:50.731Z,1.33
2018-05-15T04:27:22.960Z,1.17
2018-05-15T04:29:56.094Z,1.17
2018-05-15T04:32:28.368Z,1.00
2018-05-15T04:35:00.797Z,1.40
2018-05-15T04:37:33.934Z,1.37
2018-05-15T04:40:06.298Z,1.20
2018-05-15T04:42:38.575Z,1.43
2018-05-15T04:45:10.886Z,1.17
2018-05-15T04:47:43.955Z,2.53
2018-05-15T04:50:16.329Z,1.17
2018-05-15T04:52:48.696Z,1.20
2018-05-15T04:55:21.000Z,1.30
2018-05-15T04:57:53.318Z,1.37
2018-05-15T05:00:25.675Z,1.43
2018-05-15T05:02:57.941Z,2.23
2018-05-15T05:05:30.290Z,1.33
2018-05-15T05:08:03.646Z,1.87
2018-05-15T05:10:36.045Z,1.30
2018-05-15T05:13:08.377Z,1.20
2018-05-15T05:15:40.702Z,2.43
2018-05-15T05:18:13.845Z,2.03
2018-05-15T05:20:46.139Z,1.70
2018-05-15T05:23:18.392Z,1.50
2018-05-15T05:25:50.755Z,2.00
2018-05-15T05:28:23.139Z,1.40
2018-05-15T05:30:55.491Z,1.87
2018-05-15T05:33:27.919Z,1.70
2018-05-15T05:36:01.085Z,1.00
2018-05-15T05:38:33.410Z,2.20
2018-05-15T05:41:05.805Z,1.70
2018-05-15T05:43:38.180Z,3.00
2018-05-15T05:46:10.500Z,2.17
2018-05-15T05:48:43.684Z,1.60
2018-05-15T05:51:16.003Z,2.30
2018-05-15T05:53:48.353Z,1.83
2018-05-15T05:56:20.711Z,1.60
2018-05-15T05:58:53.031Z,1.37
2018-05-15T06:01:25.561Z,2.20
2018-05-15T06:03:58.725Z,1.70
2018-05-15T06:06:31.308Z,1.40
2018-05-15T06:09:03.688Z,1.60
2018-05-15T06:11:36.161Z,2.03
2018-05-15T06:14:08.448Z,2.10
2018-05-15T06:16:40.763Z,2.00
2018-05-15T06:19:13.356Z,2.00
2018-05-15T06:21:45.671Z,2.20
2018-05-15T06:24:18.786Z,1.83
2018-05-15T06:26:51.193Z,1.93
2018-05-15T06:29:23.576Z,2.63
2018-05-15T06:31:55.997Z,1.87
2018-05-15T06:34:28.325Z,2.60
2018-05-15T06:37:00.680Z,2.60
2018-05-15T06:39:33.042Z,3.73
2018-05-15T06:42:05.385Z,3.60
2018-05-15T06:44:37.855Z,3.47
2018-05-15T06:47:10.151Z,2.33
2018-05-15T06:49:42.486Z,2.40
2018-05-15T06:52:14.869Z,2.60
2018-05-15T06:54:47.284Z,2.43
2018-05-15T06:57:19.598Z,2.33
2018-05-15T06:59:52.565Z,2.67
2018-05-15T07:02:25.723Z,2.60
2018-05-15T07:04:58.058Z,2.87
2018-05-15T07:07:31.225Z,2.40
2018-05-15T07:10:03.634Z,2.67
2018-05-15T07:12:35.975Z,2.30
2018-05-15T07:15:08.218Z,2.03
2018-05-15T07:17:40.516Z,2.63
2018-05-15T07:20:12.849Z,2.60
2018-05-15T07:22:45.281Z,2.60
2018-05-15T07:25:18.326Z,2.70
2018-05-15T07:27:50.797Z,2.67
2018-05-15T07:30:23.171Z,2.60
2018-05-15T07:32:55.517Z,2.40
2018-05-15T07:35:27.867Z,2.80
2018-05-15T07:38:00.088Z,2.47
2018-05-15T07:40:32.446Z,2.83
2018-05-15T07:43:04.851Z,2.50
2018-05-15T07:45:37.897Z,2.75
2018-05-15T07:48:10.345Z,2.47
2018-05-15T07:50:42.663Z,3.08
2018-05-15T07:53:14.982Z,2.60
2018-05-15T07:55:47.309Z,2.92
2018-05-15T07:58:19.700Z,2.60
2018-05-15T08:00:52.045Z,2.35
2018-05-15T08:03:24.324Z,2.47
2018-05-15T08:05:56.626Z,2.70
2018-05-15T08:08:29.719Z,2.50
2018-05-15T08:11:02.892Z,2.25
2018-05-15T08:13:35.214Z,2.80
2018-05-15T08:16:07.518Z,2.33
2018-05-15T08:18:39.931Z,2.65
2018-05-15T08:21:13.038Z,2.62
2018-05-15T08:23:45.477Z,2.80
2018-05-15T08:26:17.943Z,2.80
2018-05-15T08:28:50.225Z,2.53
2018-05-15T08:31:22.515Z,2.40
2018-05-15T08:33:55.452Z,2.65
2018-05-15T08:36:27.797Z,2.33
2018-05-15T08:39:00.104Z,2.12
2018-05-15T08:41:32.455Z,2.40
2018-05-15T08:44:04.930Z,2.30
2018-05-15T08:46:37.953Z,2.30
2018-05-15T08:49:10.339Z,2.22
2018-05-15T08:51:43.480Z,2.45
2018-05-15T08:54:16.635Z,2.15
2018-05-15T08:56:49.782Z,2.62
2018-05-15T08:59:22.150Z,2.33
2018-05-15T09:01:54.549Z,2.10
2018-05-15T09:04:26.836Z,2.42
2018-05-15T09:06:59.913Z,2.33
2018-05-15T09:09:32.279Z,2.00
2018-05-15T09:12:04.640Z,2.20
2018-05-15T09:14:37.091Z,1.90
2018-05-15T09:17:10.104Z,2.00
2018-05-15T09:19:42.490Z,2.42
2018-05-15T09:22:14.789Z,2.87
2018-05-15T09:24:47.151Z,2.40
2018-05-15T09:27:19.562Z,4.68
2018-05-15T09:29:51.878Z,2.08
2018-05-15T09:32:24.199Z,2.12
2018-05-15T09:34:56.604Z,2.20
2018-05-15T09:37:28.861Z,1.80
2018-05-15T09:40:01.028Z,2.55
2018-05-15T09:42:33.323Z,1.52
2018-05-15T09:45:05.776Z,2.10
2018-05-15T09:47:38.044Z,1.70
2018-05-15T09:50:10.441Z,1.90
2018-05-15T09:52:42.751Z,1.85
2018-05-15T09:55:15.125Z,2.15
2018-05-15T09:57:47.660Z,1.80
2018-05-15T10:00:20.056Z,2.00
2018-05-15T10:02:53.201Z,1.73
2018-05-15T10:05:25.556Z,1.60
2018-05-15T10:07:57.996Z,1.63
2018-05-15T10:10:30.262Z,1.70
2018-05-15T10:13:03.289Z,2.00
2018-05-15T10:15:36.369Z,1.90
2018-05-15T10:18:08.678Z,1.60
2018-05-15T10:20:41.007Z,1.70
2018-05-15T10:23:13.305Z,1.70
2018-05-15T10:25:45.752Z,1.80
2018-05-15T10:28:18.102Z,1.77
2018-05-15T10:30:51.222Z,2.10
2018-05-15T10:33:23.800Z,1.90
2018-05-15T10:35:56.201Z,1.80
2018-05-15T10:38:28.544Z,2.00
2018-05-15T10:41:00.963Z,1.60
2018-05-15T10:43:33.285Z,1.70
2018-05-15T10:46:05.647Z,1.80
2018-05-15T10:48:37.977Z,1.97
2018-05-15T10:51:10.764Z,1.60
2018-05-15T10:53:43.054Z,1.83
2018-05-15T10:56:15.396Z,1.60
2018-05-15T10:58:47.733Z,1.60
2018-05-15T11:01:20.061Z,1.63
2018-05-15T11:03:52.473Z,1.50
2018-05-15T11:06:24.829Z,1.37
2018-05-15T11:08:57.152Z,1.60
2018-05-15T11:11:29.989Z,1.70
2018-05-15T11:14:03.023Z,1.77
2018-05-15T11:16:35.345Z,2.47
2018-05-15T11:19:20.794Z,2.03
2018-05-15T11:22:05.924Z,1.60
2018-05-15T11:24:50.739Z,1.80
2018-05-15T11:27:23.221Z,1.53
2018-05-15T11:29:55.606Z,1.43
2018-05-15T11:32:27.947Z,1.73
2018-05-15T11:35:00.199Z,1.63
2018-05-15T11:37:32.664Z,1.40
2018-05-15T11:40:05.168Z,1.73
2018-05-15T11:42:37.575Z,1.63
2018-05-15T11:45:10.705Z,1.73
2018-05-15T11:47:43.395Z,1.60
2018-05-15T11:50:17.285Z,1.80
2018-05-15T11:52:50.129Z,2.03
2018-05-15T11:55:22.651Z,2.00
2018-05-15T11:57:55.002Z,2.30
2018-05-15T12:00:27.321Z,1.43
2018-05-15T12:02:59.713Z,2.10
2018-05-15T12:05:32.872Z,1.43
2018-05-15T12:08:05.348Z,1.80
2018-05-15T12:10:37.808Z,1.63
2018-05-15T12:13:10.912Z,1.53
2018-05-15T12:15:43.179Z,2.23
2018-05-15T12:18:15.383Z,1.73
2018-05-15T12:20:48.388Z,1.80
2018-05-15T12:23:21.566Z,1.87
2018-05-15T12:25:54.668Z,1.60
2018-05-15T12:28:27.695Z,1.93
2018-05-15T12:31:00.074Z,1.57
2018-05-15T12:33:32.432Z,1.53
2018-05-15T12:36:04.773Z,1.57
2018-05-15T12:38:37.226Z,1.83
2018-05-15T12:41:09.715Z,2.00
2018-05-15T12:43:42.125Z,2.17
2018-05-15T12:46:14.557Z,4.33
2018-05-15T12:48:47.765Z,1.53
2018-05-15T12:51:20.060Z,2.00
2018-05-15T12:53:52.691Z,2.13
2018-05-15T12:56:25.739Z,1.60
2018-05-15T12:58:58.124Z,1.53
2018-05-15T13:01:30.721Z,1.60
2018-05-15T13:04:03.013Z,1.73
2018-05-15T13:06:36.005Z,1.47
2018-05-15T13:09:09.041Z,1.70
2018-05-15T13:11:41.368Z,1.43
2018-05-15T13:14:14.521Z,2.73
2018-05-15T13:16:46.853Z,1.73
2018-05-15T13:19:19.182Z,1.53
2018-05-15T13:21:51.411Z,1.70
2018-05-15T13:24:23.800Z,1.67
2018-05-15T13:26:56.358Z,2.13
2018-05-15T13:29:28.752Z,1.60
2018-05-15T13:32:01.217Z,1.80
2018-05-15T13:34:33.641Z,1.97
2018-05-15T13:37:06.691Z,1.83
2018-05-15T13:39:39.060Z,2.10
2018-05-15T13:42:11.368Z,6.23
2018-05-15T13:44:43.778Z,2.00
2018-05-15T13:47:16.069Z,1.77
2018-05-15T13:49:48.494Z,2.00
2018-05-15T13:52:21.648Z,2.63
2018-05-15T13:54:54.035Z,2.17
2018-05-15T13:57:26.326Z,1.83
2018-05-15T13:59:59.496Z,2.17
2018-05-15T14:02:31.828Z,1.90
2018-05-15T14:05:04.144Z,1.60
2018-05-15T14:07:36.479Z,2.10
2018-05-15T14:10:09.084Z,2.30
2018-05-15T14:12:41.448Z,2.37
2018-05-15T14:15:14.020Z,1.97
2018-05-15T14:17:46.413Z,2.50
2018-05-15T14:20:19.627Z,2.40
2018-05-15T14:22:51.903Z,2.33
2018-05-15T14:25:25.174Z,2.27
2018-05-15T14:27:58.229Z,2.40
2018-05-15T14:30:30.552Z,2.60
2018-05-15T14:33:03.591Z,1.93
2018-05-15T14:35:35.963Z,1.90
2018-05-15T14:38:08.231Z,2.23
2018-05-15T14:40:40.559Z,3.17
2018-05-15T14:43:25.218Z,1.87
2018-05-15T14:45:57.610Z,1.77
2018-05-15T14:48:30.015Z,2.27
2018-05-15T14:51:32.300Z,1.83
2018-05-15T14:54:10.735Z,2.80
2018-05-15T14:56:43.772Z,2.50
2018-05-15T14:59:16.164Z,2.27
2018-05-15T15:01:48.530Z,2.47
2018-05-15T15:04:20.813Z,3.17
2018-05-15T15:06:53.132Z,2.33
2018-05-15T15:09:26.111Z,1.90
2018-05-15T15:11:59.213Z,1.60
2018-05-15T15:14:31.566Z,1.70
2018-05-15T15:17:04.771Z,1.70
2018-05-15T15:19:37.919Z,1.80
2018-05-15T15:22:10.233Z,2.00
2018-05-15T15:24:42.533Z,1.90
2018-05-15T15:27:14.974Z,1.80
2018-05-15T15:29:48.054Z,1.73
2018-05-15T15:32:20.404Z,1.67
2018-05-15T15:34:52.762Z,2.10
2018-05-15T15:37:25.132Z,1.80
2018-05-15T15:39:57.481Z,1.93
2018-05-15T15:42:29.899Z,1.90
2018-05-15T15:45:02.239Z,1.83
2018-05-15T15:47:34.531Z,1.73
2018-05-15T15:50:06.881Z,2.13
2018-05-15T15:52:39.177Z,2.27
2018-05-15T15:55:11.468Z,2.00
2018-05-15T15:57:44.561Z,2.63
2018-05-15T16:00:17.716Z,2.33
2018-05-15T16:02:50.023Z,2.10
2018-05-15T16:05:23.569Z,3.33
2018-05-15T16:07:55.997Z,2.23
2018-05-15T16:10:29.059Z,2.43
2018-05-15T16:13:01.418Z,2.20
2018-05-15T16:15:33.799Z,4.43
2018-05-15T16:18:06.376Z,2.03
2018-05-15T16:20:38.846Z,3.17
2018-05-15T16:23:11.977Z,2.40
2018-05-15T16:25:45.466Z,2.17
2018-05-15T16:28:18.000Z,2.00
2018-05-15T16:30:50.263Z,2.13
2018-05-15T16:33:22.701Z,1.70
2018-05-15T16:35:55.840Z,1.90
2018-05-15T16:38:28.368Z,2.87
2018-05-15T16:41:01.513Z,2.00
2018-05-15T16:43:33.953Z,1.60
2018-05-15T16:46:06.325Z,1.97
2018-05-15T16:48:38.782Z,2.07
2018-05-15T16:51:11.932Z,1.97
2018-05-15T16:53:44.247Z,2.40
2018-05-15T16:56:17.419Z,2.10
2018-05-15T16:58:49.802Z,2.67
2018-05-15T17:01:22.891Z,1.87
2018-05-15T17:03:56.089Z,2.67
2018-05-15T17:06:29.216Z,1.87
2018-05-15T17:09:01.491Z,1.87
2018-05-15T17:11:34.642Z,2.17
2018-05-15T17:14:07.766Z,2.00
2018-05-15T17:16:41.040Z,1.83
2018-05-15T17:19:13.476Z,1.97
2018-05-15T17:21:45.813Z,2.13
2018-05-15T17:24:18.136Z,2.27
2018-05-15T17:26:51.230Z,2.37
2018-05-15T17:29:24.421Z,1.73
2018-05-15T17:31:57.547Z,2.40
2018-05-15T17:34:29.898Z,1.50
2018-05-15T17:37:02.230Z,2.07
2018-05-15T17:39:34.631Z,2.13
2018-05-15T17:42:07.826Z,2.23
2018-05-15T17:44:40.184Z,1.60
2018-05-15T17:47:13.274Z,2.17
2018-05-15T17:49:45.635Z,1.67
2018-05-15T17:52:17.980Z,1.57
2018-05-15T17:54:50.348Z,1.80
2018-05-15T17:57:22.750Z,2.20
2018-05-15T17:59:55.183Z,1.70
2018-05-15T18:02:27.538Z,2.07
2018-05-15T18:05:00.665Z,1.63
2018-05-15T18:07:33.083Z,1.60
2018-05-15T18:10:06.388Z,2.47
2018-05-15T18:12:38.633Z,2.00
2018-05-15T18:15:11.047Z,1.63
2018-05-15T18:17:44.112Z,2.17
2018-05-15T18:20:17.225Z,1.90
2018-05-15T18:22:49.650Z,1.97
2018-05-15T18:25:22.561Z,1.73
2018-05-15T18:27:55.621Z,1.97
2018-05-15T18:30:27.976Z,1.80
2018-05-15T18:33:00.307Z,2.00
2018-05-15T18:35:33.606Z,2.17
2018-05-15T18:38:05.951Z,1.57
2018-05-15T18:40:39.149Z,2.70
2018-05-15T18:43:11.592Z,2.17
2018-05-15T18:45:43.948Z,1.97
2018-05-15T18:48:16.220Z,2.13
2018-05-15T18:50:48.596Z,2.27
2018-05-15T18:53:20.882Z,2.17
2018-05-15T18:55:53.182Z,2.50
2018-05-15T18:58:26.298Z,2.20
2018-05-15T19:00:58.985Z,2.60
2018-05-15T19:03:31.405Z,2.60
2018-05-15T19:06:03.794Z,2.03
2018-05-15T19:08:36.150Z,2.80
2018-05-15T19:11:08.529Z,1.93
2018-05-15T19:13:40.880Z,1.60
2018-05-15T19:16:13.344Z,1.77
2018-05-15T19:18:45.696Z,2.27
2018-05-15T19:21:18.121Z,2.40
2018-05-15T19:23:50.427Z,2.47
2018-05-15T19:26:23.474Z,2.10
2018-05-15T19:28:56.000Z,2.63
2018-05-15T19:31:28.332Z,2.07
2018-05-15T19:34:00.933Z,1.80
2018-05-15T19:36:33.235Z,2.37
2018-05-15T19:39:06.281Z,1.77
2018-05-15T19:41:39.368Z,1.87
2018-05-15T19:44:11.677Z,2.20
2018-05-15T19:46:44.023Z,2.10
2018-05-15T19:49:17.165Z,2.23
2018-05-15T19:51:49.548Z,2.27
2018-05-15T19:54:21.783Z,2.53
2018-05-15T19:56:54.096Z,2.33
2018-05-15T19:59:26.459Z,2.07
2018-05-15T20:01:58.904Z,2.40
2018-05-15T20:04:31.198Z,2.33
2018-05-15T20:07:03.515Z,2.10
2018-05-15T20:09:36.652Z,2.30
2018-05-15T20:12:09.064Z,2.60
2018-05-15T20:14:41.399Z,2.20
2018-05-15T20:17:13.833Z,2.07
2018-05-15T20:19:46.277Z,2.57
2018-05-15T20:22:18.570Z,2.23
2018-05-15T20:24:51.713Z,2.37
2018-05-15T20:27:23.997Z,2.53
2018-05-15T20:29:56.284Z,2.03
2018-05-15T20:32:29.034Z,2.80
2018-05-15T20:35:01.575Z,2.97
2018-05-15T20:37:33.718Z,2.10
2018-05-15T20:40:05.983Z,2.27
2018-05-15T20:42:38.312Z,2.10
2018-05-15T20:45:10.648Z,3.00
2018-05-15T20:47:43.783Z,3.73
2018-05-15T20:50:16.247Z,2.43
2018-05-15T20:52:48.718Z,2.20
2018-05-15T20:55:21.069Z,2.40
2018-05-15T20:57:53.548Z,2.37
2018-05-15T21:00:25.970Z,2.10
2018-05-15T21:02:58.357Z,3.00
2018-05-15T21:05:30.652Z,2.70
2018-05-15T21:08:03.133Z,2.73
2018-05-15T21:10:36.220Z,2.13
2018-05-15T21:13:09.397Z,2.30
2018-05-15T21:15:41.719Z,2.30
2018-05-15T21:18:14.065Z,2.10
2018-05-15T21:20:46.473Z,2.53
2018-05-15T21:23:18.802Z,2.20
2018-05-15T21:25:51.947Z,2.33
2018-05-15T21:28:24.271Z,2.47
2018-05-15T21:30:56.575Z,2.93
2018-05-15T21:33:28.991Z,2.67
2018-05-15T21:36:02.167Z,2.17
2018-05-15T21:38:34.519Z,2.37
2018-05-15T21:41:06.741Z,2.83
2018-05-15T21:43:39.917Z,2.53
2018-05-15T21:46:12.187Z,2.80
2018-05-15T21:48:44.559Z,2.10
2018-05-15T21:51:16.819Z,2.70
2018-05-15T21:53:49.278Z,3.43
2018-05-15T21:56:21.647Z,1.83
2018-05-15T21:58:53.971Z,2.37
2018-05-15T22:01:26.250Z,2.10
2018-05-15T22:03:58.608Z,2.00
2018-05-15T22:06:30.935Z,2.07
2018-05-15T22:09:03.331Z,2.37
2018-05-15T22:11:35.364Z,2.43
2018-05-15T22:14:20.102Z,2.90
2018-05-15T22:17:04.755Z,2.03
2018-05-15T22:19:49.560Z,2.43
2018-05-15T22:22:21.822Z,1.77
2018-05-15T22:24:54.184Z,1.90
2018-05-15T22:27:26.653Z,2.17
2018-05-15T22:29:59.076Z,2.30
2018-05-15T22:32:32.223Z,1.77
2018-05-15T22:35:04.659Z,2.10
2018-05-15T22:37:37.005Z,2.40
2018-05-15T22:40:10.109Z,2.60
2018-05-15T22:42:43.183Z,2.27
2018-05-15T22:45:16.349Z,1.93
2018-05-15T22:47:48.725Z,2.17
2018-05-15T22:50:21.198Z,1.63
2018-05-15T22:52:54.563Z,2.20
2018-05-15T22:55:27.041Z,2.50
2018-05-15T22:57:59.343Z,2.07
2018-05-15T23:00:31.733Z,2.03
2018-05-15T23:03:03.933Z,2.80
2018-05-15T23:05:37.066Z,2.77
2018-05-15T23:08:09.373Z,2.33
2018-05-15T23:10:41.867Z,2.93
2018-05-15T23:13:14.119Z,2.10
2018-05-15T23:15:46.679Z,2.37
2018-05-15T23:18:19.001Z,1.87
2018-05-15T23:20:51.427Z,3.03
2018-05-15T23:23:23.782Z,2.17
2018-05-15T23:25:56.099Z,2.27
2018-05-15T23:28:29.192Z,2.97
2018-05-15T23:31:02.319Z,2.83
2018-05-15T23:33:34.625Z,2.43
2018-05-15T23:36:07.029Z,2.10
2018-05-15T23:38:40.181Z,2.17
2018-05-15T23:41:12.589Z,1.80
2018-05-15T23:43:45.663Z,1.33
2018-05-15T23:46:17.999Z,2.20
2018-05-15T23:48:50.291Z,2.60
2018-05-15T23:51:22.575Z,2.17
2018-05-15T23:53:55.754Z,3.10
2018-05-15T23:56:28.137Z,2.40
2018-05-15T23:59:00.394Z,2.67
